sensor_id;sensor_type;location;lat;lon;timestamp;P1;durP1;ratioP1;P2;durP2;ratioP2
19521;SDS011;9905;52.126;5.596;2024-01-07T00:01:46;26.08;;;23.60;;
19521;SDS011;9905;52.126;5.596;2024-01-07T00:04:14;25.10;;;22.73;;
19521;SDS011;9905;52.126;5.596;2024-01-07T00:06:42;27.00;;;24.23;;
19521;SDS011;9905;52.126;5.596;2024-01-07T00:09:10;25.08;;;22.77;;
19521;SDS011;9905;52.126;5.596;2024-01-07T00:11:37;24.75;;;22.38;;
19521;SDS011;9905;52.126;5.596;2024-01-07T00:14:04;25.30;;;23.10;;
19521;SDS011;9905;52.126;5.596;2024-01-07T00:16:30;23.45;;;21.25;;
19521;SDS011;9905;52.126;5.596;2024-01-07T00:18:57;25.13;;;22.85;;
19521;SDS011;9905;52.126;5.596;2024-01-07T00:21:24;25.67;;;23.47;;
19521;SDS011;9905;52.126;5.596;2024-01-07T00:23:52;24.38;;;22.27;;
19521;SDS011;9905;52.126;5.596;2024-01-07T00:26:19;24.77;;;22.67;;
19521;SDS011;9905;52.126;5.596;2024-01-07T00:28:46;26.48;;;24.00;;
19521;SDS011;9905;52.126;5.596;2024-01-07T00:31:12;24.75;;;22.60;;
19521;SDS011;9905;52.126;5.596;2024-01-07T00:33:41;25.02;;;22.83;;
19521;SDS011;9905;52.126;5.596;2024-01-07T00:36:08;26.25;;;23.60;;
19521;SDS011;9905;52.126;5.596;2024-01-07T00:38:34;26.70;;;24.20;;
19521;SDS011;9905;52.126;5.596;2024-01-07T00:41:03;24.65;;;22.55;;
19521;SDS011;9905;52.126;5.596;2024-01-07T00:43:29;25.65;;;23.38;;
19521;SDS011;9905;52.126;5.596;2024-01-07T00:45:56;26.80;;;23.98;;
19521;SDS011;9905;52.126;5.596;2024-01-07T00:48:23;25.17;;;22.98;;
19521;SDS011;9905;52.126;5.596;2024-01-07T00:50:50;25.58;;;23.35;;
19521;SDS011;9905;52.126;5.596;2024-01-07T00:53:16;26.42;;;24.00;;
19521;SDS011;9905;52.126;5.596;2024-01-07T00:55:43;28.02;;;25.52;;
19521;SDS011;9905;52.126;5.596;2024-01-07T00:58:11;27.75;;;24.92;;
19521;SDS011;9905;52.126;5.596;2024-01-07T01:00:38;27.60;;;24.80;;
19521;SDS011;9905;52.126;5.596;2024-01-07T01:03:05;28.33;;;25.25;;
19521;SDS011;9905;52.126;5.596;2024-01-07T01:05:31;27.52;;;25.02;;
19521;SDS011;9905;52.126;5.596;2024-01-07T01:07:58;28.63;;;25.83;;
19521;SDS011;9905;52.126;5.596;2024-01-07T01:10:25;30.08;;;27.10;;
19521;SDS011;9905;52.126;5.596;2024-01-07T01:12:51;27.92;;;25.13;;
19521;SDS011;9905;52.126;5.596;2024-01-07T01:15:20;30.45;;;26.23;;
19521;SDS011;9905;52.126;5.596;2024-01-07T01:17:47;26.67;;;24.00;;
19521;SDS011;9905;52.126;5.596;2024-01-07T01:20:14;29.75;;;26.90;;
19521;SDS011;9905;52.126;5.596;2024-01-07T01:22:41;29.73;;;26.80;;
19521;SDS011;9905;52.126;5.596;2024-01-07T01:25:08;29.50;;;26.40;;
19521;SDS011;9905;52.126;5.596;2024-01-07T01:27:35;29.40;;;26.35;;
19521;SDS011;9905;52.126;5.596;2024-01-07T01:30:02;29.43;;;26.43;;
19521;SDS011;9905;52.126;5.596;2024-01-07T01:32:31;27.27;;;24.67;;
19521;SDS011;9905;52.126;5.596;2024-01-07T01:34:58;28.27;;;25.33;;
19521;SDS011;9905;52.126;5.596;2024-01-07T01:37:24;27.67;;;24.90;;
19521;SDS011;9905;52.126;5.596;2024-01-07T01:39:51;28.10;;;25.35;;
19521;SDS011;9905;52.126;5.596;2024-01-07T01:42:18;29.52;;;26.63;;
19521;SDS011;9905;52.126;5.596;2024-01-07T01:44:45;29.10;;;26.15;;
19521;SDS011;9905;52.126;5.596;2024-01-07T01:47:12;28.35;;;25.55;;
19521;SDS011;9905;52.126;5.596;2024-01-07T01:49:41;29.40;;;25.25;;
19521;SDS011;9905;52.126;5.596;2024-01-07T01:52:08;27.93;;;25.07;;
19521;SDS011;9905;52.126;5.596;2024-01-07T01:54:35;29.05;;;25.95;;
19521;SDS011;9905;52.126;5.596;2024-01-07T01:57:02;28.80;;;26.00;;
19521;SDS011;9905;52.126;5.596;2024-01-07T01:59:30;27.73;;;24.67;;
19521;SDS011;9905;52.126;5.596;2024-01-07T02:01:58;28.40;;;25.63;;
19521;SDS011;9905;52.126;5.596;2024-01-07T02:04:25;30.13;;;27.13;;
19521;SDS011;9905;52.126;5.596;2024-01-07T02:06:53;29.25;;;26.10;;
19521;SDS011;9905;52.126;5.596;2024-01-07T02:09:20;29.40;;;26.47;;
19521;SDS011;9905;52.126;5.596;2024-01-07T02:11:59;28.63;;;25.80;;
19521;SDS011;9905;52.126;5.596;2024-01-07T02:14:27;26.73;;;24.02;;
19521;SDS011;9905;52.126;5.596;2024-01-07T02:16:53;30.17;;;24.97;;
19521;SDS011;9905;52.126;5.596;2024-01-07T02:19:20;27.10;;;24.10;;
19521;SDS011;9905;52.126;5.596;2024-01-07T02:21:49;28.90;;;26.17;;
19521;SDS011;9905;52.126;5.596;2024-01-07T02:24:17;25.05;;;22.85;;
19521;SDS011;9905;52.126;5.596;2024-01-07T02:26:44;26.10;;;23.52;;
19521;SDS011;9905;52.126;5.596;2024-01-07T02:29:11;28.60;;;25.88;;
19521;SDS011;9905;52.126;5.596;2024-01-07T02:31:38;26.67;;;23.98;;
19521;SDS011;9905;52.126;5.596;2024-01-07T02:34:05;25.10;;;22.60;;
19521;SDS011;9905;52.126;5.596;2024-01-07T02:36:31;26.80;;;24.05;;
19521;SDS011;9905;52.126;5.596;2024-01-07T02:38:58;24.80;;;22.42;;
19521;SDS011;9905;52.126;5.596;2024-01-07T02:41:26;26.63;;;24.10;;
19521;SDS011;9905;52.126;5.596;2024-01-07T02:43:55;25.58;;;23.25;;
19521;SDS011;9905;52.126;5.596;2024-01-07T02:46:23;26.27;;;23.52;;
19521;SDS011;9905;52.126;5.596;2024-01-07T02:48:50;26.10;;;23.45;;
19521;SDS011;9905;52.126;5.596;2024-01-07T02:51:17;26.05;;;23.42;;
19521;SDS011;9905;52.126;5.596;2024-01-07T02:53:44;26.67;;;24.23;;
19521;SDS011;9905;52.126;5.596;2024-01-07T02:56:10;26.80;;;24.25;;
19521;SDS011;9905;52.126;5.596;2024-01-07T02:58:39;27.58;;;24.67;;
19521;SDS011;9905;52.126;5.596;2024-01-07T03:01:08;26.70;;;24.00;;
19521;SDS011;9905;52.126;5.596;2024-01-07T03:03:35;28.33;;;25.65;;
19521;SDS011;9905;52.126;5.596;2024-01-07T03:06:02;26.63;;;23.98;;
19521;SDS011;9905;52.126;5.596;2024-01-07T03:08:29;27.02;;;24.38;;
19521;SDS011;9905;52.126;5.596;2024-01-07T03:10:56;27.15;;;24.55;;
19521;SDS011;9905;52.126;5.596;2024-01-07T03:13:22;26.10;;;23.52;;
19521;SDS011;9905;52.126;5.596;2024-01-07T03:15:51;27.88;;;25.08;;
19521;SDS011;9905;52.126;5.596;2024-01-07T03:18:17;27.00;;;24.45;;
19521;SDS011;9905;52.126;5.596;2024-01-07T03:20:44;28.92;;;26.08;;
19521;SDS011;9905;52.126;5.596;2024-01-07T03:23:11;27.60;;;24.42;;
19521;SDS011;9905;52.126;5.596;2024-01-07T03:25:37;27.25;;;24.55;;
19521;SDS011;9905;52.126;5.596;2024-01-07T03:28:04;27.15;;;24.45;;
19521;SDS011;9905;52.126;5.596;2024-01-07T03:30:31;27.02;;;24.45;;
19521;SDS011;9905;52.126;5.596;2024-01-07T03:32:59;27.27;;;24.67;;
19521;SDS011;9905;52.126;5.596;2024-01-07T03:35:26;28.50;;;25.73;;
19521;SDS011;9905;52.126;5.596;2024-01-07T03:37:53;28.13;;;25.20;;
19521;SDS011;9905;52.126;5.596;2024-01-07T03:40:20;28.17;;;25.23;;
19521;SDS011;9905;52.126;5.596;2024-01-07T03:42:47;27.40;;;24.73;;
19521;SDS011;9905;52.126;5.596;2024-01-07T03:45:14;27.08;;;24.30;;
19521;SDS011;9905;52.126;5.596;2024-01-07T03:47:40;25.60;;;23.00;;
19521;SDS011;9905;52.126;5.596;2024-01-07T03:50:09;28.17;;;25.37;;
19521;SDS011;9905;52.126;5.596;2024-01-07T03:52:35;29.92;;;26.45;;
19521;SDS011;9905;52.126;5.596;2024-01-07T03:55:02;28.35;;;25.38;;
19521;SDS011;9905;52.126;5.596;2024-01-07T03:57:30;26.88;;;24.27;;
19521;SDS011;9905;52.126;5.596;2024-01-07T03:59:58;27.75;;;24.77;;
19521;SDS011;9905;52.126;5.596;2024-01-07T04:02:25;27.40;;;24.50;;
19521;SDS011;9905;52.126;5.596;2024-01-07T04:04:51;28.60;;;25.75;;
19521;SDS011;9905;52.126;5.596;2024-01-07T04:07:19;28.03;;;25.13;;
19521;SDS011;9905;52.126;5.596;2024-01-07T04:09:46;27.40;;;24.63;;
19521;SDS011;9905;52.126;5.596;2024-01-07T04:12:13;27.98;;;25.30;;
19521;SDS011;9905;52.126;5.596;2024-01-07T04:14:39;27.23;;;24.58;;
19521;SDS011;9905;52.126;5.596;2024-01-07T04:17:06;27.40;;;24.67;;
19521;SDS011;9905;52.126;5.596;2024-01-07T04:19:35;27.35;;;24.45;;
19521;SDS011;9905;52.126;5.596;2024-01-07T04:22:03;25.50;;;22.85;;
19521;SDS011;9905;52.126;5.596;2024-01-07T04:24:31;25.92;;;23.15;;
19521;SDS011;9905;52.126;5.596;2024-01-07T04:26:57;27.63;;;24.70;;
19521;SDS011;9905;52.126;5.596;2024-01-07T04:29:24;23.90;;;21.58;;
19521;SDS011;9905;52.126;5.596;2024-01-07T04:31:51;24.50;;;22.02;;
19521;SDS011;9905;52.126;5.596;2024-01-07T04:34:17;24.27;;;21.77;;
19521;SDS011;9905;52.126;5.596;2024-01-07T04:36:44;22.90;;;20.42;;
19521;SDS011;9905;52.126;5.596;2024-01-07T04:39:12;22.53;;;20.33;;
19521;SDS011;9905;52.126;5.596;2024-01-07T04:41:40;24.07;;;21.67;;
19521;SDS011;9905;52.126;5.596;2024-01-07T04:44:07;22.13;;;19.98;;
19521;SDS011;9905;52.126;5.596;2024-01-07T04:46:34;22.45;;;19.88;;
19521;SDS011;9905;52.126;5.596;2024-01-07T04:49:01;20.40;;;18.40;;
19521;SDS011;9905;52.126;5.596;2024-01-07T04:51:28;21.17;;;18.93;;
19521;SDS011;9905;52.126;5.596;2024-01-07T04:53:55;20.52;;;18.50;;
19521;SDS011;9905;52.126;5.596;2024-01-07T04:56:21;21.50;;;19.23;;
19521;SDS011;9905;52.126;5.596;2024-01-07T04:58:49;20.00;;;17.95;;
19521;SDS011;9905;52.126;5.596;2024-01-07T05:01:16;20.57;;;18.73;;
19521;SDS011;9905;52.126;5.596;2024-01-07T05:03:43;20.63;;;18.63;;
19521;SDS011;9905;52.126;5.596;2024-01-07T05:06:09;19.67;;;17.87;;
19521;SDS011;9905;52.126;5.596;2024-01-07T05:08:37;20.33;;;18.40;;
19521;SDS011;9905;52.126;5.596;2024-01-07T05:11:03;19.42;;;17.80;;
19521;SDS011;9905;52.126;5.596;2024-01-07T05:13:30;19.13;;;17.38;;
19521;SDS011;9905;52.126;5.596;2024-01-07T05:15:58;19.47;;;17.73;;
19521;SDS011;9905;52.126;5.596;2024-01-07T05:18:25;18.55;;;16.85;;
19521;SDS011;9905;52.126;5.596;2024-01-07T05:20:52;18.83;;;16.85;;
19521;SDS011;9905;52.126;5.596;2024-01-07T05:23:19;18.70;;;16.90;;
19521;SDS011;9905;52.126;5.596;2024-01-07T05:25:46;17.60;;;16.30;;
19521;SDS011;9905;52.126;5.596;2024-01-07T05:28:13;18.42;;;16.65;;
19521;SDS011;9905;52.126;5.596;2024-01-07T05:30:40;19.20;;;17.30;;
19521;SDS011;9905;52.126;5.596;2024-01-07T05:33:11;18.60;;;17.00;;
19521;SDS011;9905;52.126;5.596;2024-01-07T05:35:38;18.38;;;16.83;;
19521;SDS011;9905;52.126;5.596;2024-01-07T05:38:05;18.27;;;16.60;;
19521;SDS011;9905;52.126;5.596;2024-01-07T05:40:32;20.65;;;18.65;;
19521;SDS011;9905;52.126;5.596;2024-01-07T05:42:58;18.60;;;17.10;;
19521;SDS011;9905;52.126;5.596;2024-01-07T05:45:25;17.27;;;15.77;;
19521;SDS011;9905;52.126;5.596;2024-01-07T05:47:52;18.55;;;17.05;;
19521;SDS011;9905;52.126;5.596;2024-01-07T05:50:20;17.43;;;15.83;;
19521;SDS011;9905;52.126;5.596;2024-01-07T05:52:47;17.30;;;15.82;;
19521;SDS011;9905;52.126;5.596;2024-01-07T05:55:13;17.50;;;16.02;;
19521;SDS011;9905;52.126;5.596;2024-01-07T05:57:40;16.47;;;15.13;;
19521;SDS011;9905;52.126;5.596;2024-01-07T06:00:09;17.38;;;15.85;;
19521;SDS011;9905;52.126;5.596;2024-01-07T06:02:37;17.77;;;16.38;;
19521;SDS011;9905;52.126;5.596;2024-01-07T06:05:05;16.33;;;14.82;;
19521;SDS011;9905;52.126;5.596;2024-01-07T06:07:33;17.02;;;15.52;;
19521;SDS011;9905;52.126;5.596;2024-01-07T06:10:00;18.20;;;16.65;;
19521;SDS011;9905;52.126;5.596;2024-01-07T06:12:27;17.35;;;16.05;;
19521;SDS011;9905;52.126;5.596;2024-01-07T06:14:54;17.83;;;16.20;;
19521;SDS011;9905;52.126;5.596;2024-01-07T06:17:20;17.60;;;16.08;;
19521;SDS011;9905;52.126;5.596;2024-01-07T06:19:47;17.02;;;15.63;;
19521;SDS011;9905;52.126;5.596;2024-01-07T06:22:14;19.43;;;17.53;;
19521;SDS011;9905;52.126;5.596;2024-01-07T06:24:42;17.42;;;15.93;;
19521;SDS011;9905;52.126;5.596;2024-01-07T06:27:09;16.50;;;15.30;;
19521;SDS011;9905;52.126;5.596;2024-01-07T06:29:35;17.48;;;15.70;;
19521;SDS011;9905;52.126;5.596;2024-01-07T06:32:02;17.80;;;16.33;;
19521;SDS011;9905;52.126;5.596;2024-01-07T06:34:29;17.63;;;16.05;;
19521;SDS011;9905;52.126;5.596;2024-01-07T06:36:57;16.88;;;15.48;;
19521;SDS011;9905;52.126;5.596;2024-01-07T06:39:24;16.70;;;15.33;;
19521;SDS011;9905;52.126;5.596;2024-01-07T06:41:53;16.73;;;15.27;;
19521;SDS011;9905;52.126;5.596;2024-01-07T06:44:20;15.82;;;14.52;;
19521;SDS011;9905;52.126;5.596;2024-01-07T06:46:46;16.05;;;14.95;;
19521;SDS011;9905;52.126;5.596;2024-01-07T06:49:13;17.27;;;15.70;;
19521;SDS011;9905;52.126;5.596;2024-01-07T06:51:40;17.27;;;15.87;;
19521;SDS011;9905;52.126;5.596;2024-01-07T06:54:07;16.58;;;15.30;;
19521;SDS011;9905;52.126;5.596;2024-01-07T06:56:34;17.60;;;16.20;;
19521;SDS011;9905;52.126;5.596;2024-01-07T06:59:02;16.67;;;15.23;;
19521;SDS011;9905;52.126;5.596;2024-01-07T07:01:28;18.00;;;16.53;;
19521;SDS011;9905;52.126;5.596;2024-01-07T07:03:55;17.20;;;15.80;;
19521;SDS011;9905;52.126;5.596;2024-01-07T07:06:22;17.45;;;16.00;;
19521;SDS011;9905;52.126;5.596;2024-01-07T07:08:49;17.42;;;16.02;;
19521;SDS011;9905;52.126;5.596;2024-01-07T07:11:16;16.47;;;15.17;;
19521;SDS011;9905;52.126;5.596;2024-01-07T07:13:43;17.73;;;16.27;;
19521;SDS011;9905;52.126;5.596;2024-01-07T07:16:11;17.88;;;16.08;;
19521;SDS011;9905;52.126;5.596;2024-01-07T07:18:38;17.88;;;16.13;;
19521;SDS011;9905;52.126;5.596;2024-01-07T07:21:04;17.90;;;16.27;;
19521;SDS011;9905;52.126;5.596;2024-01-07T07:23:31;17.63;;;16.23;;
19521;SDS011;9905;52.126;5.596;2024-01-07T07:25:58;17.53;;;16.00;;
19521;SDS011;9905;52.126;5.596;2024-01-07T07:28:25;17.33;;;15.82;;
19521;SDS011;9905;52.126;5.596;2024-01-07T07:30:52;16.30;;;15.00;;
19521;SDS011;9905;52.126;5.596;2024-01-07T07:33:20;17.63;;;16.00;;
19521;SDS011;9905;52.126;5.596;2024-01-07T07:35:46;18.20;;;16.60;;
19521;SDS011;9905;52.126;5.596;2024-01-07T07:38:13;18.13;;;16.73;;
19521;SDS011;9905;52.126;5.596;2024-01-07T07:40:40;18.10;;;16.30;;
19521;SDS011;9905;52.126;5.596;2024-01-07T07:43:08;18.20;;;16.50;;
19521;SDS011;9905;52.126;5.596;2024-01-07T07:45:35;17.60;;;15.93;;
19521;SDS011;9905;52.126;5.596;2024-01-07T07:48:01;17.35;;;15.85;;
19521;SDS011;9905;52.126;5.596;2024-01-07T07:50:30;17.40;;;15.70;;
19521;SDS011;9905;52.126;5.596;2024-01-07T07:52:56;16.63;;;15.15;;
19521;SDS011;9905;52.126;5.596;2024-01-07T07:55:23;18.30;;;16.60;;
19521;SDS011;9905;52.126;5.596;2024-01-07T07:57:50;16.40;;;15.10;;
19521;SDS011;9905;52.126;5.596;2024-01-07T08:00:17;16.07;;;14.67;;
19521;SDS011;9905;52.126;5.596;2024-01-07T08:02:44;16.07;;;14.67;;
19521;SDS011;9905;52.126;5.596;2024-01-07T08:05:11;15.30;;;14.10;;
19521;SDS011;9905;52.126;5.596;2024-01-07T08:07:39;16.13;;;14.82;;
19521;SDS011;9905;52.126;5.596;2024-01-07T08:10:06;16.10;;;14.70;;
19521;SDS011;9905;52.126;5.596;2024-01-07T08:12:34;14.35;;;13.27;;
19521;SDS011;9905;52.126;5.596;2024-01-07T08:15:00;13.57;;;12.47;;
19521;SDS011;9905;52.126;5.596;2024-01-07T08:17:27;14.30;;;13.30;;
19521;SDS011;9905;52.126;5.596;2024-01-07T08:19:54;13.73;;;12.77;;
19521;SDS011;9905;52.126;5.596;2024-01-07T08:22:21;14.33;;;13.37;;
19521;SDS011;9905;52.126;5.596;2024-01-07T08:24:49;14.75;;;13.40;;
19521;SDS011;9905;52.126;5.596;2024-01-07T08:27:16;13.63;;;12.63;;
19521;SDS011;9905;52.126;5.596;2024-01-07T08:29:43;13.75;;;12.85;;
19521;SDS011;9905;52.126;5.596;2024-01-07T08:32:10;13.73;;;12.83;;
19521;SDS011;9905;52.126;5.596;2024-01-07T08:34:37;13.80;;;12.77;;
19521;SDS011;9905;52.126;5.596;2024-01-07T08:37:05;13.10;;;12.30;;
19521;SDS011;9905;52.126;5.596;2024-01-07T08:39:32;13.93;;;13.03;;
19521;SDS011;9905;52.126;5.596;2024-01-07T08:42:00;13.00;;;12.10;;
19521;SDS011;9905;52.126;5.596;2024-01-07T08:44:29;12.53;;;11.73;;
19521;SDS011;9905;52.126;5.596;2024-01-07T08:46:55;12.93;;;12.13;;
19521;SDS011;9905;52.126;5.596;2024-01-07T08:49:22;13.23;;;12.33;;
19521;SDS011;9905;52.126;5.596;2024-01-07T08:51:49;13.30;;;12.40;;
19521;SDS011;9905;52.126;5.596;2024-01-07T08:54:16;12.95;;;12.15;;
19521;SDS011;9905;52.126;5.596;2024-01-07T08:56:42;13.83;;;12.80;;
19521;SDS011;9905;52.126;5.596;2024-01-07T08:59:11;13.07;;;12.17;;
19521;SDS011;9905;52.126;5.596;2024-01-07T09:01:38;13.07;;;12.17;;
19521;SDS011;9905;52.126;5.596;2024-01-07T09:04:05;12.47;;;11.60;;
19521;SDS011;9905;52.126;5.596;2024-01-07T09:06:31;12.27;;;11.48;;
19521;SDS011;9905;52.126;5.596;2024-01-07T09:08:58;12.80;;;11.80;;
19521;SDS011;9905;52.126;5.596;2024-01-07T09:11:25;12.17;;;11.30;;
19521;SDS011;9905;52.126;5.596;2024-01-07T09:13:52;13.00;;;11.80;;
19521;SDS011;9905;52.126;5.596;2024-01-07T09:16:20;12.60;;;11.73;;
19521;SDS011;9905;52.126;5.596;2024-01-07T09:18:46;11.87;;;11.13;;
19521;SDS011;9905;52.126;5.596;2024-01-07T09:21:13;12.50;;;11.60;;
19521;SDS011;9905;52.126;5.596;2024-01-07T09:23:40;12.60;;;11.80;;
19521;SDS011;9905;52.126;5.596;2024-01-07T09:26:07;11.60;;;10.73;;
19521;SDS011;9905;52.126;5.596;2024-01-07T09:28:34;13.57;;;12.57;;
19521;SDS011;9905;52.126;5.596;2024-01-07T09:31:01;12.50;;;11.60;;
19521;SDS011;9905;52.126;5.596;2024-01-07T09:33:29;12.20;;;11.23;;
19521;SDS011;9905;52.126;5.596;2024-01-07T09:35:56;11.50;;;10.77;;
19521;SDS011;9905;52.126;5.596;2024-01-07T09:38:22;12.37;;;11.40;;
19521;SDS011;9905;52.126;5.596;2024-01-07T09:40:50;11.13;;;10.33;;
19521;SDS011;9905;52.126;5.596;2024-01-07T09:43:18;10.23;;;9.63;;
19521;SDS011;9905;52.126;5.596;2024-01-07T09:45:46;10.80;;;10.10;;
19521;SDS011;9905;52.126;5.596;2024-01-07T09:48:13;11.67;;;10.87;;
19521;SDS011;9905;52.126;5.596;2024-01-07T09:50:41;10.70;;;10.00;;
19521;SDS011;9905;52.126;5.596;2024-01-07T09:53:10;11.20;;;10.38;;
19521;SDS011;9905;52.126;5.596;2024-01-07T09:55:44;10.15;;;9.48;;
19521;SDS011;9905;52.126;5.596;2024-01-07T09:58:19;10.73;;;10.00;;
19521;SDS011;9905;52.126;5.596;2024-01-07T10:00:46;9.77;;;9.00;;
19521;SDS011;9905;52.126;5.596;2024-01-07T10:03:13;10.37;;;9.67;;
19521;SDS011;9905;52.126;5.596;2024-01-07T10:05:41;10.15;;;9.55;;
19521;SDS011;9905;52.126;5.596;2024-01-07T10:08:08;9.18;;;8.68;;
19521;SDS011;9905;52.126;5.596;2024-01-07T10:10:35;9.67;;;9.17;;
19521;SDS011;9905;52.126;5.596;2024-01-07T10:13:03;9.13;;;8.53;;
19521;SDS011;9905;52.126;5.596;2024-01-07T10:15:31;9.50;;;8.93;;
19521;SDS011;9905;52.126;5.596;2024-01-07T10:18:02;9.10;;;8.60;;
19521;SDS011;9905;52.126;5.596;2024-01-07T10:20:31;8.97;;;8.43;;
19521;SDS011;9905;52.126;5.596;2024-01-07T10:23:00;8.03;;;7.73;;
19521;SDS011;9905;52.126;5.596;2024-01-07T10:25:27;8.77;;;8.18;;
19521;SDS011;9905;52.126;5.596;2024-01-07T10:27:58;8.10;;;7.72;;
19521;SDS011;9905;52.126;5.596;2024-01-07T10:30:26;8.43;;;7.90;;
19521;SDS011;9905;52.126;5.596;2024-01-07T10:32:55;8.85;;;8.30;;
19521;SDS011;9905;52.126;5.596;2024-01-07T10:35:23;8.97;;;8.27;;
19521;SDS011;9905;52.126;5.596;2024-01-07T10:37:54;8.00;;;7.60;;
19521;SDS011;9905;52.126;5.596;2024-01-07T10:40:23;7.93;;;7.63;;
19521;SDS011;9905;52.126;5.596;2024-01-07T10:42:51;8.23;;;7.70;;
19521;SDS011;9905;52.126;5.596;2024-01-07T10:45:20;8.43;;;8.03;;
19521;SDS011;9905;52.126;5.596;2024-01-07T10:47:48;7.78;;;7.38;;
19521;SDS011;9905;52.126;5.596;2024-01-07T10:50:16;8.57;;;7.87;;
19521;SDS011;9905;52.126;5.596;2024-01-07T10:52:46;9.23;;;8.77;;
19521;SDS011;9905;52.126;5.596;2024-01-07T10:55:17;8.67;;;7.97;;
19521;SDS011;9905;52.126;5.596;2024-01-07T10:57:47;10.63;;;9.17;;
19521;SDS011;9905;52.126;5.596;2024-01-07T11:00:15;9.02;;;8.32;;
19521;SDS011;9905;52.126;5.596;2024-01-07T11:02:51;10.97;;;9.67;;
19521;SDS011;9905;52.126;5.596;2024-01-07T11:05:25;10.40;;;9.40;;
19521;SDS011;9905;52.126;5.596;2024-01-07T11:07:59;9.33;;;8.63;;
19521;SDS011;9905;52.126;5.596;2024-01-07T11:10:31;10.20;;;9.30;;
19521;SDS011;9905;52.126;5.596;2024-01-07T11:13:06;10.03;;;8.83;;
19521;SDS011;9905;52.126;5.596;2024-01-07T11:15:51;9.38;;;8.48;;
19521;SDS011;9905;52.126;5.596;2024-01-07T11:18:19;8.20;;;7.60;;
19521;SDS011;9905;52.126;5.596;2024-01-07T11:20:47;8.00;;;7.30;;
19521;SDS011;9905;52.126;5.596;2024-01-07T11:23:25;7.03;;;6.70;;
19521;SDS011;9905;52.126;5.596;2024-01-07T11:25:53;7.00;;;6.70;;
19521;SDS011;9905;52.126;5.596;2024-01-07T11:28:24;8.50;;;8.00;;
19521;SDS011;9905;52.126;5.596;2024-01-07T11:31:08;7.85;;;7.32;;
19521;SDS011;9905;52.126;5.596;2024-01-07T11:33:36;7.57;;;7.07;;
19521;SDS011;9905;52.126;5.596;2024-01-07T11:36:03;7.38;;;6.97;;
19521;SDS011;9905;52.126;5.596;2024-01-07T11:38:31;6.50;;;6.20;;
19521;SDS011;9905;52.126;5.596;2024-01-07T11:41:00;6.93;;;6.38;;
19521;SDS011;9905;52.126;5.596;2024-01-07T11:43:29;5.90;;;5.50;;
19521;SDS011;9905;52.126;5.596;2024-01-07T11:45:56;5.97;;;5.77;;
19521;SDS011;9905;52.126;5.596;2024-01-07T11:48:22;5.80;;;5.45;;
19521;SDS011;9905;52.126;5.596;2024-01-07T11:50:49;6.20;;;5.83;;
19521;SDS011;9905;52.126;5.596;2024-01-07T11:53:16;6.40;;;5.93;;
19521;SDS011;9905;52.126;5.596;2024-01-07T11:55:43;6.47;;;6.00;;
19521;SDS011;9905;52.126;5.596;2024-01-07T11:58:11;6.43;;;6.03;;
19521;SDS011;9905;52.126;5.596;2024-01-07T12:00:39;6.60;;;6.10;;
19521;SDS011;9905;52.126;5.596;2024-01-07T12:03:06;6.63;;;6.00;;
19521;SDS011;9905;52.126;5.596;2024-01-07T12:05:32;6.40;;;6.10;;
19521;SDS011;9905;52.126;5.596;2024-01-07T12:08:00;6.30;;;5.93;;
19521;SDS011;9905;52.126;5.596;2024-01-07T12:10:28;6.22;;;5.80;;
19521;SDS011;9905;52.126;5.596;2024-01-07T12:12:54;5.45;;;5.25;;
19521;SDS011;9905;52.126;5.596;2024-01-07T12:15:22;5.38;;;5.18;;
19521;SDS011;9905;52.126;5.596;2024-01-07T12:17:57;6.03;;;5.57;;
19521;SDS011;9905;52.126;5.596;2024-01-07T12:20:26;4.93;;;4.73;;
19521;SDS011;9905;52.126;5.596;2024-01-07T12:22:55;6.33;;;5.83;;
19521;SDS011;9905;52.126;5.596;2024-01-07T12:25:23;6.85;;;6.45;;
19521;SDS011;9905;52.126;5.596;2024-01-07T12:27:50;6.47;;;6.10;;
19521;SDS011;9905;52.126;5.596;2024-01-07T12:30:19;6.15;;;5.72;;
19521;SDS011;9905;52.126;5.596;2024-01-07T12:32:46;5.80;;;5.60;;
19521;SDS011;9905;52.126;5.596;2024-01-07T12:35:14;5.50;;;5.13;;
19521;SDS011;9905;52.126;5.596;2024-01-07T12:37:42;7.45;;;6.53;;
19521;SDS011;9905;52.126;5.596;2024-01-07T12:40:10;14.02;;;8.70;;
19521;SDS011;9905;52.126;5.596;2024-01-07T12:42:37;8.73;;;6.72;;
19521;SDS011;9905;52.126;5.596;2024-01-07T12:45:09;12.43;;;7.82;;
19521;SDS011;9905;52.126;5.596;2024-01-07T12:47:36;19.65;;;11.75;;
19521;SDS011;9905;52.126;5.596;2024-01-07T12:50:03;17.70;;;9.48;;
19521;SDS011;9905;52.126;5.596;2024-01-07T12:52:32;5.15;;;4.95;;
19521;SDS011;9905;52.126;5.596;2024-01-07T12:54:58;5.05;;;4.85;;
19521;SDS011;9905;52.126;5.596;2024-01-07T12:57:25;4.72;;;4.43;;
19521;SDS011;9905;52.126;5.596;2024-01-07T12:59:52;5.28;;;4.88;;
19521;SDS011;9905;52.126;5.596;2024-01-07T13:02:19;4.72;;;4.47;;
19521;SDS011;9905;52.126;5.596;2024-01-07T13:04:46;5.32;;;5.13;;
19521;SDS011;9905;52.126;5.596;2024-01-07T13:07:12;4.57;;;4.38;;
19521;SDS011;9905;52.126;5.596;2024-01-07T13:09:41;4.40;;;4.20;;
19521;SDS011;9905;52.126;5.596;2024-01-07T13:12:09;4.43;;;4.30;;
19521;SDS011;9905;52.126;5.596;2024-01-07T13:14:36;4.30;;;4.20;;
19521;SDS011;9905;52.126;5.596;2024-01-07T13:17:03;4.45;;;4.10;;
19521;SDS011;9905;52.126;5.596;2024-01-07T13:19:30;4.78;;;4.57;;
19521;SDS011;9905;52.126;5.596;2024-01-07T13:21:57;4.43;;;4.22;;
19521;SDS011;9905;52.126;5.596;2024-01-07T13:24:24;4.25;;;4.07;;
19521;SDS011;9905;52.126;5.596;2024-01-07T13:26:52;4.10;;;4.00;;
19521;SDS011;9905;52.126;5.596;2024-01-07T13:29:19;4.40;;;4.20;;
19521;SDS011;9905;52.126;5.596;2024-01-07T13:31:46;3.90;;;3.80;;
19521;SDS011;9905;52.126;5.596;2024-01-07T13:34:12;4.05;;;3.80;;
19521;SDS011;9905;52.126;5.596;2024-01-07T13:36:40;3.97;;;3.83;;
19521;SDS011;9905;52.126;5.596;2024-01-07T13:39:07;4.53;;;4.13;;
19521;SDS011;9905;52.126;5.596;2024-01-07T13:41:33;3.70;;;3.60;;
19521;SDS011;9905;52.126;5.596;2024-01-07T13:44:02;4.28;;;4.18;;
19521;SDS011;9905;52.126;5.596;2024-01-07T13:46:29;3.42;;;3.33;;
19521;SDS011;9905;52.126;5.596;2024-01-07T13:48:55;4.43;;;4.20;;
19521;SDS011;9905;52.126;5.596;2024-01-07T13:51:22;3.78;;;3.67;;
19521;SDS011;9905;52.126;5.596;2024-01-07T13:53:49;4.63;;;4.50;;
19521;SDS011;9905;52.126;5.596;2024-01-07T13:56:16;4.10;;;4.00;;
19521;SDS011;9905;52.126;5.596;2024-01-07T13:58:42;4.40;;;4.10;;
19521;SDS011;9905;52.126;5.596;2024-01-07T14:01:13;4.47;;;4.28;;
19521;SDS011;9905;52.126;5.596;2024-01-07T14:03:41;4.47;;;4.07;;
19521;SDS011;9905;52.126;5.596;2024-01-07T14:06:08;4.25;;;4.05;;
19521;SDS011;9905;52.126;5.596;2024-01-07T14:08:36;3.80;;;3.47;;
19521;SDS011;9905;52.126;5.596;2024-01-07T14:11:02;3.83;;;3.72;;
19521;SDS011;9905;52.126;5.596;2024-01-07T14:13:32;3.88;;;3.75;;
19521;SDS011;9905;52.126;5.596;2024-01-07T14:15:58;3.92;;;3.80;;
19521;SDS011;9905;52.126;5.596;2024-01-07T14:18:27;3.83;;;3.72;;
19521;SDS011;9905;52.126;5.596;2024-01-07T14:20:53;3.85;;;3.65;;
19521;SDS011;9905;52.126;5.596;2024-01-07T14:23:20;3.78;;;3.63;;
19521;SDS011;9905;52.126;5.596;2024-01-07T14:25:47;3.57;;;3.47;;
19521;SDS011;9905;52.126;5.596;2024-01-07T14:28:14;4.05;;;3.78;;
19521;SDS011;9905;52.126;5.596;2024-01-07T14:30:40;4.00;;;3.90;;
19521;SDS011;9905;52.126;5.596;2024-01-07T14:33:07;4.33;;;4.17;;
19521;SDS011;9905;52.126;5.596;2024-01-07T14:35:35;4.13;;;3.93;;
19521;SDS011;9905;52.126;5.596;2024-01-07T14:38:02;4.17;;;3.97;;
19521;SDS011;9905;52.126;5.596;2024-01-07T14:40:29;4.07;;;3.88;;
19521;SDS011;9905;52.126;5.596;2024-01-07T14:42:56;4.57;;;4.38;;
19521;SDS011;9905;52.126;5.596;2024-01-07T14:45:23;4.03;;;3.93;;